Khartoum, Sudan
Current Conditions -  °F | °C
As of 12:00 AM on Saturday 01 Nov 2014 (Local Time) from HSSS Reporting Station
Clear Clear  
Wind Chill: 86°   Ceiling: Unl
Heat Index: 86°   Visibility: 6mi
Dew Point: 37°   Wind: 12mph
Humidity: 18%   Direction: 320°NW
Pressure: 29.85"   Gusts: NA
Location:  15.58°N, 32.52°E
Report Text: HSSS 312100Z 32010KT CAVOK 30/03 Q1011 NOSIG
Loading
Personal Weather Stations






























Interactive Weather Map
Tropical Storm Tracking
New forecast layout! Learn more

10-Day Weather Forecast

Advertisements
Track Severe Weather on mobile